sensor_id;sensor_type;location;lat;lon;timestamp;temperature;humidity
78696;SHT31;68030;51.980;5.646;2023-05-18T00:01:08;10.8;52.7
78696;SHT31;68030;51.980;5.646;2023-05-18T00:03:39;10.8;51.9
78696;SHT31;68030;51.980;5.646;2023-05-18T00:06:09;10.7;51.9
78696;SHT31;68030;51.980;5.646;2023-05-18T00:08:40;10.7;52.2
78696;SHT31;68030;51.980;5.646;2023-05-18T00:11:10;10.7;52.4
78696;SHT31;68030;51.980;5.646;2023-05-18T00:13:42;10.7;52.1
78696;SHT31;68030;51.980;5.646;2023-05-18T00:16:11;10.7;52.5
78696;SHT31;68030;51.980;5.646;2023-05-18T00:18:42;10.7;52.4
78696;SHT31;68030;51.980;5.646;2023-05-18T00:21:12;10.6;52.3
78696;SHT31;68030;51.980;5.646;2023-05-18T00:23:43;10.6;53.1
78696;SHT31;68030;51.980;5.646;2023-05-18T00:26:17;10.6;52.4
78696;SHT31;68030;51.980;5.646;2023-05-18T00:28:47;10.6;52.5
78696;SHT31;68030;51.980;5.646;2023-05-18T00:31:17;10.6;52.4
78696;SHT31;68030;51.980;5.646;2023-05-18T00:33:47;10.6;52.6
78696;SHT31;68030;51.980;5.646;2023-05-18T00:36:16;10.5;53.0
78696;SHT31;68030;51.980;5.646;2023-05-18T00:38:46;10.5;52.9
78696;SHT31;68030;51.980;5.646;2023-05-18T00:41:16;10.5;52.7
78696;SHT31;68030;51.980;5.646;2023-05-18T00:43:48;10.5;52.7
78696;SHT31;68030;51.980;5.646;2023-05-18T00:46:18;10.4;53.0
78696;SHT31;68030;51.980;5.646;2023-05-18T00:48:49;10.4;53.4
78696;SHT31;68030;51.980;5.646;2023-05-18T00:51:20;10.4;53.6
78696;SHT31;68030;51.980;5.646;2023-05-18T00:53:54;10.4;53.9
78696;SHT31;68030;51.980;5.646;2023-05-18T00:56:24;10.3;54.1
78696;SHT31;68030;51.980;5.646;2023-05-18T00:58:57;10.3;53.7
78696;SHT31;68030;51.980;5.646;2023-05-18T01:01:28;10.3;54.2
78696;SHT31;68030;51.980;5.646;2023-05-18T01:04:01;10.3;54.3
78696;SHT31;68030;51.980;5.646;2023-05-18T01:06:32;10.2;54.2
78696;SHT31;68030;51.980;5.646;2023-05-18T01:09:04;10.2;54.2
78696;SHT31;68030;51.980;5.646;2023-05-18T01:11:42;10.2;54.5
78696;SHT31;68030;51.980;5.646;2023-05-18T01:14:18;10.2;53.6
78696;SHT31;68030;51.980;5.646;2023-05-18T01:16:54;10.2;53.9
78696;SHT31;68030;51.980;5.646;2023-05-18T01:20:49;10.1;53.5
78696;SHT31;68030;51.980;5.646;2023-05-18T01:23:57;10.1;53.6
78696;SHT31;68030;51.980;5.646;2023-05-18T01:26:33;10.1;53.7
78696;SHT31;68030;51.980;5.646;2023-05-18T01:29:08;10.0;54.0
78696;SHT31;68030;51.980;5.646;2023-05-18T01:31:38;10.0;54.1
78696;SHT31;68030;51.980;5.646;2023-05-18T01:34:08;10.0;54.2
78696;SHT31;68030;51.980;5.646;2023-05-18T01:36:39;10.0;54.4
78696;SHT31;68030;51.980;5.646;2023-05-18T01:39:09;9.9;54.7
78696;SHT31;68030;51.980;5.646;2023-05-18T01:41:47;9.9;54.3
78696;SHT31;68030;51.980;5.646;2023-05-18T01:44:23;9.9;54.4
78696;SHT31;68030;51.980;5.646;2023-05-18T01:47:00;9.9;54.2
78696;SHT31;68030;51.980;5.646;2023-05-18T01:49:35;9.9;54.3
78696;SHT31;68030;51.980;5.646;2023-05-18T01:52:10;9.8;54.3
78696;SHT31;68030;51.980;5.646;2023-05-18T01:54:43;9.8;54.5
78696;SHT31;68030;51.980;5.646;2023-05-18T01:57:14;9.8;54.5
78696;SHT31;68030;51.980;5.646;2023-05-18T01:59:45;9.8;54.6
78696;SHT31;68030;51.980;5.646;2023-05-18T02:02:16;9.7;54.7
78696;SHT31;68030;51.980;5.646;2023-05-18T02:04:46;9.7;54.7
78696;SHT31;68030;51.980;5.646;2023-05-18T02:07:16;9.7;54.7
78696;SHT31;68030;51.980;5.646;2023-05-18T02:09:48;9.7;55.1
78696;SHT31;68030;51.980;5.646;2023-05-18T02:12:18;9.6;55.2
78696;SHT31;68030;51.980;5.646;2023-05-18T02:14:47;9.6;55.5
78696;SHT31;68030;51.980;5.646;2023-05-18T02:17:17;9.6;55.2
78696;SHT31;68030;51.980;5.646;2023-05-18T02:19:48;9.6;55.3
78696;SHT31;68030;51.980;5.646;2023-05-18T02:22:18;9.6;55.1
78696;SHT31;68030;51.980;5.646;2023-05-18T02:24:47;9.6;55.5
78696;SHT31;68030;51.980;5.646;2023-05-18T02:27:17;9.6;55.5
78696;SHT31;68030;51.980;5.646;2023-05-18T02:29:47;9.6;55.8
78696;SHT31;68030;51.980;5.646;2023-05-18T02:32:18;9.6;55.3
78696;SHT31;68030;51.980;5.646;2023-05-18T02:34:50;9.6;55.3
78696;SHT31;68030;51.980;5.646;2023-05-18T02:37:19;9.6;55.2
78696;SHT31;68030;51.980;5.646;2023-05-18T02:39:49;9.5;55.5
78696;SHT31;68030;51.980;5.646;2023-05-18T02:42:19;9.5;55.8
78696;SHT31;68030;51.980;5.646;2023-05-18T02:44:48;9.5;55.8
78696;SHT31;68030;51.980;5.646;2023-05-18T02:47:18;9.5;55.4
78696;SHT31;68030;51.980;5.646;2023-05-18T02:49:47;9.5;55.6
78696;SHT31;68030;51.980;5.646;2023-05-18T02:52:18;9.5;55.4
78696;SHT31;68030;51.980;5.646;2023-05-18T02:54:48;9.5;55.9
78696;SHT31;68030;51.980;5.646;2023-05-18T02:57:21;9.5;56.1
78696;SHT31;68030;51.980;5.646;2023-05-18T02:59:52;9.5;55.4
78696;SHT31;68030;51.980;5.646;2023-05-18T03:02:23;9.5;55.2
78696;SHT31;68030;51.980;5.646;2023-05-18T03:04:54;9.5;55.6
78696;SHT31;68030;51.980;5.646;2023-05-18T03:07:23;9.5;55.5
78696;SHT31;68030;51.980;5.646;2023-05-18T03:09:54;9.5;55.7
78696;SHT31;68030;51.980;5.646;2023-05-18T03:12:23;9.5;55.5
78696;SHT31;68030;51.980;5.646;2023-05-18T03:14:53;9.5;55.3
78696;SHT31;68030;51.980;5.646;2023-05-18T03:17:22;9.5;55.3
78696;SHT31;68030;51.980;5.646;2023-05-18T03:19:52;9.5;55.3
78696;SHT31;68030;51.980;5.646;2023-05-18T03:22:22;9.5;55.4
78696;SHT31;68030;51.980;5.646;2023-05-18T03:24:52;9.5;55.7
78696;SHT31;68030;51.980;5.646;2023-05-18T03:27:22;9.4;55.5
78696;SHT31;68030;51.980;5.646;2023-05-18T03:29:56;9.4;55.4
78696;SHT31;68030;51.980;5.646;2023-05-18T03:32:25;9.4;55.4
78696;SHT31;68030;51.980;5.646;2023-05-18T03:34:58;9.4;55.6
78696;SHT31;68030;51.980;5.646;2023-05-18T03:37:31;9.4;55.9
78696;SHT31;68030;51.980;5.646;2023-05-18T03:40:12;9.4;56.1
78696;SHT31;68030;51.980;5.646;2023-05-18T03:42:42;9.3;55.7
78696;SHT31;68030;51.980;5.646;2023-05-18T03:45:12;9.3;56.2
78696;SHT31;68030;51.980;5.646;2023-05-18T03:47:42;9.3;55.8
78696;SHT31;68030;51.980;5.646;2023-05-18T03:50:12;9.3;55.7
78696;SHT31;68030;51.980;5.646;2023-05-18T03:52:43;9.3;55.8
78696;SHT31;68030;51.980;5.646;2023-05-18T03:55:13;9.3;56.1
78696;SHT31;68030;51.980;5.646;2023-05-18T03:57:43;9.2;56.1
78696;SHT31;68030;51.980;5.646;2023-05-18T04:00:14;9.2;55.9
78696;SHT31;68030;51.980;5.646;2023-05-18T04:02:43;9.2;56.0
78696;SHT31;68030;51.980;5.646;2023-05-18T04:05:13;9.2;56.8
78696;SHT31;68030;51.980;5.646;2023-05-18T04:07:43;9.2;56.2
78696;SHT31;68030;51.980;5.646;2023-05-18T04:10:13;9.2;56.3
78696;SHT31;68030;51.980;5.646;2023-05-18T04:12:44;9.2;56.0
78696;SHT31;68030;51.980;5.646;2023-05-18T04:15:14;9.2;56.3
78696;SHT31;68030;51.980;5.646;2023-05-18T04:17:43;9.2;56.3
78696;SHT31;68030;51.980;5.646;2023-05-18T04:20:13;9.2;56.0
78696;SHT31;68030;51.980;5.646;2023-05-18T04:22:44;9.2;56.0
78696;SHT31;68030;51.980;5.646;2023-05-18T04:25:15;9.2;55.8
78696;SHT31;68030;51.980;5.646;2023-05-18T04:27:47;9.2;55.8
78696;SHT31;68030;51.980;5.646;2023-05-18T04:30:17;9.3;56.2
78696;SHT31;68030;51.980;5.646;2023-05-18T04:32:49;9.3;56.0
78696;SHT31;68030;51.980;5.646;2023-05-18T04:35:20;9.3;55.9
78696;SHT31;68030;51.980;5.646;2023-05-18T04:37:51;9.4;55.4
78696;SHT31;68030;51.980;5.646;2023-05-18T04:40:21;9.4;55.4
78696;SHT31;68030;51.980;5.646;2023-05-18T04:42:51;9.5;55.2
78696;SHT31;68030;51.980;5.646;2023-05-18T04:45:21;9.5;54.8
78696;SHT31;68030;51.980;5.646;2023-05-18T04:47:52;9.6;55.0
78696;SHT31;68030;51.980;5.646;2023-05-18T04:50:24;9.6;54.6
78696;SHT31;68030;51.980;5.646;2023-05-18T04:52:55;9.7;54.4
78696;SHT31;68030;51.980;5.646;2023-05-18T04:55:30;9.7;54.3
78696;SHT31;68030;51.980;5.646;2023-05-18T04:58:00;9.8;54.1
78696;SHT31;68030;51.980;5.646;2023-05-18T05:00:30;9.9;54.3
78696;SHT31;68030;51.980;5.646;2023-05-18T05:02:59;9.9;53.5
78696;SHT31;68030;51.980;5.646;2023-05-18T05:05:29;10.0;53.3
78696;SHT31;68030;51.980;5.646;2023-05-18T05:07:59;10.1;52.6
78696;SHT31;68030;51.980;5.646;2023-05-18T05:10:31;10.2;52.5
78696;SHT31;68030;51.980;5.646;2023-05-18T05:13:02;10.2;52.4
78696;SHT31;68030;51.980;5.646;2023-05-18T05:15:32;10.3;52.1
78696;SHT31;68030;51.980;5.646;2023-05-18T05:18:03;10.4;52.0
78696;SHT31;68030;51.980;5.646;2023-05-18T05:20:33;10.4;51.6
78696;SHT31;68030;51.980;5.646;2023-05-18T05:23:02;10.5;51.5
78696;SHT31;68030;51.980;5.646;2023-05-18T05:25:33;10.5;51.9
78696;SHT31;68030;51.980;5.646;2023-05-18T05:28:02;10.6;52.0
78696;SHT31;68030;51.980;5.646;2023-05-18T05:30:32;10.6;51.3
78696;SHT31;68030;51.980;5.646;2023-05-18T05:33:02;10.7;51.3
78696;SHT31;68030;51.980;5.646;2023-05-18T05:35:33;10.7;51.2
78696;SHT31;68030;51.980;5.646;2023-05-18T05:38:03;10.8;50.8
78696;SHT31;68030;51.980;5.646;2023-05-18T05:40:33;10.8;50.7
78696;SHT31;68030;51.980;5.646;2023-05-18T05:43:03;10.9;50.5
78696;SHT31;68030;51.980;5.646;2023-05-18T05:45:34;10.9;51.2
78696;SHT31;68030;51.980;5.646;2023-05-18T05:48:04;11.0;50.2
78696;SHT31;68030;51.980;5.646;2023-05-18T05:50:35;11.0;50.4
78696;SHT31;68030;51.980;5.646;2023-05-18T05:53:06;11.1;50.3
78696;SHT31;68030;51.980;5.646;2023-05-18T05:55:36;11.2;50.0
78696;SHT31;68030;51.980;5.646;2023-05-18T05:58:08;11.3;49.9
78696;SHT31;68030;51.980;5.646;2023-05-18T06:00:41;11.4;49.5
78696;SHT31;68030;51.980;5.646;2023-05-18T06:03:12;11.5;49.5
78696;SHT31;68030;51.980;5.646;2023-05-18T06:05:44;11.6;49.4
78696;SHT31;68030;51.980;5.646;2023-05-18T06:08:13;11.7;49.0
78696;SHT31;68030;51.980;5.646;2023-05-18T06:10:44;11.8;49.2
78696;SHT31;68030;51.980;5.646;2023-05-18T06:13:13;11.9;48.1
78696;SHT31;68030;51.980;5.646;2023-05-18T06:15:43;11.9;48.1
78696;SHT31;68030;51.980;5.646;2023-05-18T06:18:12;12.0;47.9
78696;SHT31;68030;51.980;5.646;2023-05-18T06:20:42;12.1;48.1
78696;SHT31;68030;51.980;5.646;2023-05-18T06:23:13;12.2;47.6
78696;SHT31;68030;51.980;5.646;2023-05-18T06:25:48;12.4;47.6
78696;SHT31;68030;51.980;5.646;2023-05-18T06:28:19;12.5;47.3
78696;SHT31;68030;51.980;5.646;2023-05-18T06:30:49;12.6;46.1
78696;SHT31;68030;51.980;5.646;2023-05-18T06:33:19;12.6;46.2
78696;SHT31;68030;51.980;5.646;2023-05-18T06:35:50;12.7;46.1
78696;SHT31;68030;51.980;5.646;2023-05-18T06:38:19;12.8;46.0
78696;SHT31;68030;51.980;5.646;2023-05-18T06:40:49;12.8;45.7
78696;SHT31;68030;51.980;5.646;2023-05-18T06:43:18;12.9;45.9
78696;SHT31;68030;51.980;5.646;2023-05-18T06:45:48;13.0;45.1
78696;SHT31;68030;51.980;5.646;2023-05-18T06:48:18;13.1;44.0
78696;SHT31;68030;51.980;5.646;2023-05-18T06:50:47;13.1;44.2
78696;SHT31;68030;51.980;5.646;2023-05-18T06:53:17;13.2;44.0
78696;SHT31;68030;51.980;5.646;2023-05-18T06:55:46;13.3;43.3
78696;SHT31;68030;51.980;5.646;2023-05-18T06:58:18;13.3;43.7
78696;SHT31;68030;51.980;5.646;2023-05-18T07:00:49;13.4;43.6
78696;SHT31;68030;51.980;5.646;2023-05-18T07:03:20;13.5;42.9
78696;SHT31;68030;51.980;5.646;2023-05-18T07:05:50;13.6;43.5
78696;SHT31;68030;51.980;5.646;2023-05-18T07:08:20;13.7;43.3
78696;SHT31;68030;51.980;5.646;2023-05-18T07:10:51;13.8;43.1
78696;SHT31;68030;51.980;5.646;2023-05-18T07:13:25;14.0;42.5
78696;SHT31;68030;51.980;5.646;2023-05-18T07:15:54;14.1;42.5
78696;SHT31;68030;51.980;5.646;2023-05-18T07:18:24;14.2;41.7
78696;SHT31;68030;51.980;5.646;2023-05-18T07:20:54;14.3;41.9
78696;SHT31;68030;51.980;5.646;2023-05-18T07:23:24;14.4;41.5
78696;SHT31;68030;51.980;5.646;2023-05-18T07:25:55;14.5;41.6
78696;SHT31;68030;51.980;5.646;2023-05-18T07:28:25;14.6;40.9
78696;SHT31;68030;51.980;5.646;2023-05-18T07:30:56;14.7;41.3
78696;SHT31;68030;51.980;5.646;2023-05-18T07:33:26;14.8;41.0
78696;SHT31;68030;51.980;5.646;2023-05-18T07:35:56;14.9;40.2
78696;SHT31;68030;51.980;5.646;2023-05-18T07:38:26;15.0;40.4
78696;SHT31;68030;51.980;5.646;2023-05-18T07:40:55;15.0;40.0
78696;SHT31;68030;51.980;5.646;2023-05-18T07:43:26;15.1;40.4
78696;SHT31;68030;51.980;5.646;2023-05-18T07:45:58;15.1;39.7
78696;SHT31;68030;51.980;5.646;2023-05-18T07:48:27;15.2;40.0
78696;SHT31;68030;51.980;5.646;2023-05-18T07:50:57;15.2;41.2
78696;SHT31;68030;51.980;5.646;2023-05-18T07:53:28;15.3;40.3
78696;SHT31;68030;51.980;5.646;2023-05-18T07:55:59;15.3;39.5
78696;SHT31;68030;51.980;5.646;2023-05-18T07:58:29;15.4;39.6
78696;SHT31;68030;51.980;5.646;2023-05-18T08:00:59;15.4;39.5
78696;SHT31;68030;51.980;5.646;2023-05-18T08:03:28;15.4;39.3
78696;SHT31;68030;51.980;5.646;2023-05-18T08:05:58;15.5;39.4
78696;SHT31;68030;51.980;5.646;2023-05-18T08:08:28;15.5;39.0
78696;SHT31;68030;51.980;5.646;2023-05-18T08:10:58;15.5;38.8
78696;SHT31;68030;51.980;5.646;2023-05-18T08:13:27;15.5;39.0
78696;SHT31;68030;51.980;5.646;2023-05-18T08:15:59;15.5;39.9
78696;SHT31;68030;51.980;5.646;2023-05-18T08:18:28;15.6;38.8
78696;SHT31;68030;51.980;5.646;2023-05-18T08:20:58;15.6;39.0
78696;SHT31;68030;51.980;5.646;2023-05-18T08:23:30;15.7;39.3
78696;SHT31;68030;51.980;5.646;2023-05-18T08:25:59;15.7;39.1
78696;SHT31;68030;51.980;5.646;2023-05-18T08:28:30;15.8;38.5
78696;SHT31;68030;51.980;5.646;2023-05-18T08:31:00;15.9;38.6
78696;SHT31;68030;51.980;5.646;2023-05-18T08:33:30;16.0;38.2
78696;SHT31;68030;51.980;5.646;2023-05-18T08:36:00;16.1;38.2
78696;SHT31;68030;51.980;5.646;2023-05-18T08:38:30;16.2;38.6
78696;SHT31;68030;51.980;5.646;2023-05-18T08:41:13;16.3;38.2
78696;SHT31;68030;51.980;5.646;2023-05-18T08:43:42;16.4;37.8
78696;SHT31;68030;51.980;5.646;2023-05-18T08:46:20;16.5;36.6
78696;SHT31;68030;51.980;5.646;2023-05-18T08:48:51;16.5;37.4
78696;SHT31;68030;51.980;5.646;2023-05-18T08:51:22;16.6;37.5
78696;SHT31;68030;51.980;5.646;2023-05-18T08:53:55;16.6;36.9
78696;SHT31;68030;51.980;5.646;2023-05-18T08:56:25;16.7;36.4
78696;SHT31;68030;51.980;5.646;2023-05-18T08:58:57;16.8;36.3
78696;SHT31;68030;51.980;5.646;2023-05-18T09:01:28;16.8;36.7
78696;SHT31;68030;51.980;5.646;2023-05-18T09:03:59;16.8;36.1
78696;SHT31;68030;51.980;5.646;2023-05-18T09:06:33;16.8;35.8
78696;SHT31;68030;51.980;5.646;2023-05-18T09:09:04;16.8;35.9
78696;SHT31;68030;51.980;5.646;2023-05-18T09:11:37;16.8;35.9
78696;SHT31;68030;51.980;5.646;2023-05-18T09:14:07;16.8;36.0
78696;SHT31;68030;51.980;5.646;2023-05-18T09:16:39;16.8;36.0
78696;SHT31;68030;51.980;5.646;2023-05-18T09:19:09;16.8;36.6
78696;SHT31;68030;51.980;5.646;2023-05-18T09:21:39;16.8;36.2
78696;SHT31;68030;51.980;5.646;2023-05-18T09:24:09;16.8;35.6
78696;SHT31;68030;51.980;5.646;2023-05-18T09:26:39;16.8;36.4
78696;SHT31;68030;51.980;5.646;2023-05-18T09:29:19;16.8;35.8
78696;SHT31;68030;51.980;5.646;2023-05-18T09:31:51;16.8;35.8
78696;SHT31;68030;51.980;5.646;2023-05-18T09:34:22;16.9;35.5
78696;SHT31;68030;51.980;5.646;2023-05-18T09:36:52;16.9;35.9
78696;SHT31;68030;51.980;5.646;2023-05-18T09:39:24;16.9;36.1
78696;SHT31;68030;51.980;5.646;2023-05-18T09:41:56;17.0;35.6
78696;SHT31;68030;51.980;5.646;2023-05-18T09:44:33;17.0;35.5
78696;SHT31;68030;51.980;5.646;2023-05-18T09:47:07;17.0;35.8
78696;SHT31;68030;51.980;5.646;2023-05-18T09:49:41;17.0;35.8
78696;SHT31;68030;51.980;5.646;2023-05-18T09:52:11;17.0;36.2
78696;SHT31;68030;51.980;5.646;2023-05-18T09:54:41;17.1;36.0
78696;SHT31;68030;51.980;5.646;2023-05-18T09:57:10;17.1;35.6
78696;SHT31;68030;51.980;5.646;2023-05-18T09:59:40;17.2;35.4
78696;SHT31;68030;51.980;5.646;2023-05-18T10:02:11;17.2;35.7
78696;SHT31;68030;51.980;5.646;2023-05-18T10:04:42;17.2;35.1
78696;SHT31;68030;51.980;5.646;2023-05-18T10:07:14;17.2;34.9
78696;SHT31;68030;51.980;5.646;2023-05-18T10:09:45;17.2;35.2
78696;SHT31;68030;51.980;5.646;2023-05-18T10:12:16;17.2;34.4
78696;SHT31;68030;51.980;5.646;2023-05-18T10:14:48;17.3;34.7
78696;SHT31;68030;51.980;5.646;2023-05-18T10:17:20;17.3;34.5
78696;SHT31;68030;51.980;5.646;2023-05-18T10:19:54;17.3;35.2
78696;SHT31;68030;51.980;5.646;2023-05-18T10:22:26;17.3;35.0
78696;SHT31;68030;51.980;5.646;2023-05-18T10:24:57;17.4;34.7
78696;SHT31;68030;51.980;5.646;2023-05-18T10:27:33;17.4;34.0
78696;SHT31;68030;51.980;5.646;2023-05-18T10:30:05;17.5;34.0
78696;SHT31;68030;51.980;5.646;2023-05-18T10:32:38;17.5;33.7
78696;SHT31;68030;51.980;5.646;2023-05-18T10:35:10;17.6;33.4
78696;SHT31;68030;51.980;5.646;2023-05-18T10:37:45;17.6;34.1
78696;SHT31;68030;51.980;5.646;2023-05-18T10:40:16;17.6;34.5
78696;SHT31;68030;51.980;5.646;2023-05-18T10:42:48;17.6;33.8
78696;SHT31;68030;51.980;5.646;2023-05-18T10:45:21;17.7;32.7
78696;SHT31;68030;51.980;5.646;2023-05-18T10:47:52;17.7;32.6
78696;SHT31;68030;51.980;5.646;2023-05-18T10:50:24;17.7;33.1
78696;SHT31;68030;51.980;5.646;2023-05-18T10:52:55;17.8;33.0
78696;SHT31;68030;51.980;5.646;2023-05-18T10:55:27;17.8;33.2
78696;SHT31;68030;51.980;5.646;2023-05-18T10:58:03;17.8;33.6
78696;SHT31;68030;51.980;5.646;2023-05-18T11:00:35;17.8;33.1
78696;SHT31;68030;51.980;5.646;2023-05-18T11:03:10;17.9;33.8
78696;SHT31;68030;51.980;5.646;2023-05-18T11:05:43;17.9;33.2
78696;SHT31;68030;51.980;5.646;2023-05-18T11:08:26;17.9;34.3
78696;SHT31;68030;51.980;5.646;2023-05-18T11:11:03;18.0;33.6
78696;SHT31;68030;51.980;5.646;2023-05-18T11:13:36;18.1;33.4
78696;SHT31;68030;51.980;5.646;2023-05-18T11:16:08;18.2;33.8
78696;SHT31;68030;51.980;5.646;2023-05-18T11:18:40;18.2;33.7
78696;SHT31;68030;51.980;5.646;2023-05-18T11:23:03;18.2;33.9
78696;SHT31;68030;51.980;5.646;2023-05-18T11:25:41;18.3;34.2
78696;SHT31;68030;51.980;5.646;2023-05-18T11:28:12;18.4;33.4
78696;SHT31;68030;51.980;5.646;2023-05-18T11:30:48;18.4;33.2
78696;SHT31;68030;51.980;5.646;2023-05-18T11:33:57;18.5;33.5
78696;SHT31;68030;51.980;5.646;2023-05-18T11:36:26;18.6;33.1
78696;SHT31;68030;51.980;5.646;2023-05-18T11:39:05;18.6;33.7
78696;SHT31;68030;51.980;5.646;2023-05-18T11:41:36;18.6;33.3
78696;SHT31;68030;51.980;5.646;2023-05-18T11:44:17;18.7;32.2
78696;SHT31;68030;51.980;5.646;2023-05-18T11:47:00;18.7;32.0
78696;SHT31;68030;51.980;5.646;2023-05-18T11:49:35;18.8;32.2
78696;SHT31;68030;51.980;5.646;2023-05-18T11:52:17;18.8;32.2
78696;SHT31;68030;51.980;5.646;2023-05-18T11:54:49;18.8;31.9
78696;SHT31;68030;51.980;5.646;2023-05-18T11:57:23;18.8;31.8
78696;SHT31;68030;51.980;5.646;2023-05-18T11:59:56;18.8;32.5
78696;SHT31;68030;51.980;5.646;2023-05-18T12:02:31;18.9;32.0
78696;SHT31;68030;51.980;5.646;2023-05-18T12:05:07;18.9;31.9
78696;SHT31;68030;51.980;5.646;2023-05-18T12:07:38;18.9;32.1
78696;SHT31;68030;51.980;5.646;2023-05-18T12:10:10;18.9;31.7
78696;SHT31;68030;51.980;5.646;2023-05-18T12:12:41;19.0;32.0
78696;SHT31;68030;51.980;5.646;2023-05-18T12:15:11;19.0;32.7
78696;SHT31;68030;51.980;5.646;2023-05-18T12:17:43;19.0;32.4
78696;SHT31;68030;51.980;5.646;2023-05-18T12:20:15;19.1;32.0
78696;SHT31;68030;51.980;5.646;2023-05-18T12:22:48;19.1;31.5
78696;SHT31;68030;51.980;5.646;2023-05-18T12:25:21;19.2;31.2
78696;SHT31;68030;51.980;5.646;2023-05-18T12:27:53;19.2;31.5
78696;SHT31;68030;51.980;5.646;2023-05-18T12:30:25;19.3;32.1
78696;SHT31;68030;51.980;5.646;2023-05-18T12:33:00;19.4;30.8
78696;SHT31;68030;51.980;5.646;2023-05-18T12:35:31;19.4;31.3
78696;SHT31;68030;51.980;5.646;2023-05-18T12:38:00;19.5;31.0
78696;SHT31;68030;51.980;5.646;2023-05-18T12:40:35;19.5;31.8
78696;SHT31;68030;51.980;5.646;2023-05-18T12:43:11;19.6;31.7
78696;SHT31;68030;51.980;5.646;2023-05-18T12:45:43;19.6;30.5
78696;SHT31;68030;51.980;5.646;2023-05-18T12:48:13;19.7;30.6
78696;SHT31;68030;51.980;5.646;2023-05-18T12:50:51;19.8;31.0
78696;SHT31;68030;51.980;5.646;2023-05-18T12:53:22;19.8;30.5
78696;SHT31;68030;51.980;5.646;2023-05-18T12:55:59;19.9;30.6
78696;SHT31;68030;51.980;5.646;2023-05-18T12:58:30;20.0;29.8
78696;SHT31;68030;51.980;5.646;2023-05-18T13:01:08;20.0;29.8
78696;SHT31;68030;51.980;5.646;2023-05-18T13:03:40;20.0;30.2
78696;SHT31;68030;51.980;5.646;2023-05-18T13:06:10;20.1;30.0
78696;SHT31;68030;51.980;5.646;2023-05-18T13:08:40;20.1;30.2
78696;SHT31;68030;51.980;5.646;2023-05-18T13:11:12;20.2;30.0
78696;SHT31;68030;51.980;5.646;2023-05-18T13:14:00;20.2;30.3
78696;SHT31;68030;51.980;5.646;2023-05-18T13:16:32;20.2;28.7
78696;SHT31;68030;51.980;5.646;2023-05-18T13:19:04;20.2;29.4
78696;SHT31;68030;51.980;5.646;2023-05-18T13:21:34;20.2;29.7
78696;SHT31;68030;51.980;5.646;2023-05-18T13:24:06;20.3;30.1
78696;SHT31;68030;51.980;5.646;2023-05-18T13:26:36;20.3;30.2
78696;SHT31;68030;51.980;5.646;2023-05-18T13:29:05;20.3;31.0
78696;SHT31;68030;51.980;5.646;2023-05-18T13:31:36;20.4;30.4
78696;SHT31;68030;51.980;5.646;2023-05-18T13:34:06;20.4;31.1
78696;SHT31;68030;51.980;5.646;2023-05-18T13:36:35;20.5;30.8
78696;SHT31;68030;51.980;5.646;2023-05-18T13:39:07;20.6;29.7
78696;SHT31;68030;51.980;5.646;2023-05-18T13:41:37;20.6;29.9
78696;SHT31;68030;51.980;5.646;2023-05-18T13:44:06;20.7;29.6
78696;SHT31;68030;51.980;5.646;2023-05-18T13:46:36;20.8;30.1
78696;SHT31;68030;51.980;5.646;2023-05-18T13:49:06;20.8;30.5
78696;SHT31;68030;51.980;5.646;2023-05-18T13:51:35;20.8;30.5
78696;SHT31;68030;51.980;5.646;2023-05-18T13:54:05;20.9;30.5
78696;SHT31;68030;51.980;5.646;2023-05-18T13:56:35;20.9;30.1
78696;SHT31;68030;51.980;5.646;2023-05-18T13:59:04;20.9;29.6
78696;SHT31;68030;51.980;5.646;2023-05-18T14:01:34;20.9;29.6
78696;SHT31;68030;51.980;5.646;2023-05-18T14:04:04;20.9;29.0
78696;SHT31;68030;51.980;5.646;2023-05-18T14:06:34;20.9;29.7
78696;SHT31;68030;51.980;5.646;2023-05-18T14:09:04;21.0;29.3
78696;SHT31;68030;51.980;5.646;2023-05-18T14:11:33;21.0;30.2
78696;SHT31;68030;51.980;5.646;2023-05-18T14:14:04;21.0;30.1
78696;SHT31;68030;51.980;5.646;2023-05-18T14:16:34;21.1;29.9
78696;SHT31;68030;51.980;5.646;2023-05-18T14:19:04;21.1;30.0
78696;SHT31;68030;51.980;5.646;2023-05-18T14:21:34;21.1;30.3
78696;SHT31;68030;51.980;5.646;2023-05-18T14:24:07;21.1;31.2
78696;SHT31;68030;51.980;5.646;2023-05-18T14:26:37;21.1;29.3
78696;SHT31;68030;51.980;5.646;2023-05-18T14:29:06;21.2;29.3
78696;SHT31;68030;51.980;5.646;2023-05-18T14:31:36;21.2;29.6
78696;SHT31;68030;51.980;5.646;2023-05-18T14:34:05;21.2;30.1
78696;SHT31;68030;51.980;5.646;2023-05-18T14:36:35;21.2;29.9
78696;SHT31;68030;51.980;5.646;2023-05-18T14:39:05;21.2;29.7
78696;SHT31;68030;51.980;5.646;2023-05-18T14:41:35;21.2;30.1
78696;SHT31;68030;51.980;5.646;2023-05-18T14:44:04;21.2;30.8
78696;SHT31;68030;51.980;5.646;2023-05-18T14:46:35;21.3;30.2
78696;SHT31;68030;51.980;5.646;2023-05-18T14:49:05;21.3;29.5
78696;SHT31;68030;51.980;5.646;2023-05-18T14:51:35;21.3;29.4
78696;SHT31;68030;51.980;5.646;2023-05-18T14:54:05;21.3;29.8
78696;SHT31;68030;51.980;5.646;2023-05-18T14:56:35;21.3;29.7
78696;SHT31;68030;51.980;5.646;2023-05-18T14:59:05;21.3;29.7
78696;SHT31;68030;51.980;5.646;2023-05-18T15:01:36;21.3;29.1
78696;SHT31;68030;51.980;5.646;2023-05-18T15:04:06;21.3;29.7
78696;SHT31;68030;51.980;5.646;2023-05-18T15:06:36;21.3;29.4
78696;SHT31;68030;51.980;5.646;2023-05-18T15:09:05;21.3;29.4
78696;SHT31;68030;51.980;5.646;2023-05-18T15:11:36;21.3;29.7
78696;SHT31;68030;51.980;5.646;2023-05-18T15:14:05;21.3;30.3
78696;SHT31;68030;51.980;5.646;2023-05-18T15:16:35;21.3;29.6
78696;SHT31;68030;51.980;5.646;2023-05-18T15:19:05;21.4;29.8
78696;SHT31;68030;51.980;5.646;2023-05-18T15:21:35;21.4;29.9
78696;SHT31;68030;51.980;5.646;2023-05-18T15:24:05;21.4;29.5
78696;SHT31;68030;51.980;5.646;2023-05-18T15:26:35;21.4;30.0
78696;SHT31;68030;51.980;5.646;2023-05-18T15:29:06;21.4;29.5
78696;SHT31;68030;51.980;5.646;2023-05-18T15:31:35;21.4;29.0
78696;SHT31;68030;51.980;5.646;2023-05-18T15:34:06;21.5;29.7
78696;SHT31;68030;51.980;5.646;2023-05-18T15:36:36;21.7;29.7
78696;SHT31;68030;51.980;5.646;2023-05-18T15:39:07;22.0;29.2
78696;SHT31;68030;51.980;5.646;2023-05-18T15:41:37;22.4;29.0
78696;SHT31;68030;51.980;5.646;2023-05-18T15:44:07;22.9;28.6
78696;SHT31;68030;51.980;5.646;2023-05-18T15:46:37;23.3;27.5
78696;SHT31;68030;51.980;5.646;2023-05-18T15:49:07;23.6;26.9
78696;SHT31;68030;51.980;5.646;2023-05-18T15:51:37;23.9;26.7
78696;SHT31;68030;51.980;5.646;2023-05-18T15:54:09;24.2;26.5
78696;SHT31;68030;51.980;5.646;2023-05-18T15:56:38;24.5;26.1
78696;SHT31;68030;51.980;5.646;2023-05-18T15:59:08;24.6;25.7
78696;SHT31;68030;51.980;5.646;2023-05-18T16:01:38;24.7;25.5
78696;SHT31;68030;51.980;5.646;2023-05-18T16:04:08;24.8;25.3
78696;SHT31;68030;51.980;5.646;2023-05-18T16:06:38;24.9;25.2
78696;SHT31;68030;51.980;5.646;2023-05-18T16:09:10;25.0;24.7
78696;SHT31;68030;51.980;5.646;2023-05-18T16:11:40;25.1;25.1
78696;SHT31;68030;51.980;5.646;2023-05-18T16:14:09;25.2;24.7
78696;SHT31;68030;51.980;5.646;2023-05-18T16:16:39;25.4;24.0
78696;SHT31;68030;51.980;5.646;2023-05-18T16:19:08;25.5;23.9
78696;SHT31;68030;51.980;5.646;2023-05-18T16:21:38;25.5;24.2
78696;SHT31;68030;51.980;5.646;2023-05-18T16:24:08;25.6;24.3
78696;SHT31;68030;51.980;5.646;2023-05-18T16:26:37;25.8;23.7
78696;SHT31;68030;51.980;5.646;2023-05-18T16:29:07;25.9;23.2
78696;SHT31;68030;51.980;5.646;2023-05-18T16:31:36;26.0;23.3
78696;SHT31;68030;51.980;5.646;2023-05-18T16:34:06;26.1;23.4